createdAt,value
2023-11-24T00:00:36.639Z,5.82
2023-11-24T00:03:04.079Z,5.80
2023-11-24T00:05:31.173Z,5.76
2023-11-24T00:07:58.373Z,5.72
2023-11-24T00:10:25.694Z,5.69
2023-11-24T00:12:52.948Z,5.67
2023-11-24T00:15:20.098Z,5.68
2023-11-24T00:17:49.000Z,5.71
2023-11-24T00:20:16.302Z,5.71
2023-11-24T00:22:43.946Z,5.64
2023-11-24T00:25:11.210Z,5.73
2023-11-24T00:27:38.605Z,5.39
2023-11-24T00:30:06.199Z,5.34
2023-11-24T00:32:33.364Z,5.41
2023-11-24T00:35:00.508Z,5.53
2023-11-24T00:37:27.967Z,5.29
2023-11-24T00:39:57.821Z,5.35
2023-11-24T00:42:25.114Z,5.33
2023-11-24T00:44:53.207Z,5.20
2023-11-24T00:47:20.379Z,5.15
2023-11-24T00:49:51.060Z,5.19
2023-11-24T00:52:18.303Z,5.21
2023-11-24T00:54:45.451Z,5.25
2023-11-24T00:57:12.776Z,5.32
2023-11-24T00:59:39.947Z,5.28
2023-11-24T01:02:09.654Z,5.22
2023-11-24T01:04:37.027Z,5.20
2023-11-24T01:07:04.361Z,5.11
2023-11-24T01:09:31.610Z,5.08
2023-11-24T01:12:01.725Z,5.06
2023-11-24T01:14:31.210Z,5.08
2023-11-24T01:16:59.908Z,5.15
2023-11-24T01:19:27.080Z,5.04
2023-11-24T01:21:54.409Z,4.86
2023-11-24T01:24:21.797Z,4.84
2023-11-24T01:26:48.984Z,5.12
2023-11-24T01:29:18.933Z,5.20
2023-11-24T01:31:46.856Z,5.13
2023-11-24T01:34:14.184Z,5.17
2023-11-24T01:36:41.764Z,5.00
2023-11-24T01:39:12.195Z,5.10
2023-11-24T01:41:42.583Z,4.98
2023-11-24T01:44:09.894Z,4.90
2023-11-24T01:46:39.287Z,4.84
2023-11-24T01:49:07.395Z,4.84
2023-11-24T01:51:34.961Z,4.91
2023-11-24T01:54:02.351Z,4.95
2023-11-24T01:56:29.981Z,4.91
2023-11-24T01:59:00.957Z,4.92
2023-11-24T02:01:28.791Z,4.87
2023-11-24T02:03:59.321Z,4.88
2023-11-24T02:06:26.630Z,4.78
2023-11-24T02:08:54.043Z,4.75
2023-11-24T02:11:21.314Z,4.78
2023-11-24T02:13:48.917Z,4.99
2023-11-24T02:16:16.504Z,5.14
2023-11-24T02:18:43.976Z,5.11
2023-11-24T02:21:11.514Z,5.15
2023-11-24T02:23:38.741Z,5.26
2023-11-24T02:26:05.962Z,5.22
2023-11-24T02:28:33.248Z,5.10
2023-11-24T02:31:00.545Z,5.09
2023-11-24T02:33:27.933Z,5.10
2023-11-24T02:35:55.692Z,5.15
2023-11-24T02:38:22.891Z,5.10
2023-11-24T02:40:50.124Z,5.26
2023-11-24T02:43:17.342Z,5.17
2023-11-24T02:45:44.549Z,5.13
2023-11-24T02:48:12.083Z,5.25
2023-11-24T02:50:39.493Z,5.25
2023-11-24T02:53:06.631Z,5.11
2023-11-24T02:55:33.818Z,5.00
2023-11-24T02:58:01.027Z,4.81
2023-11-24T03:00:28.619Z,4.73
2023-11-24T03:02:55.814Z,4.71
2023-11-24T03:05:23.024Z,4.70
2023-11-24T03:07:50.142Z,4.74
2023-11-24T03:10:17.438Z,4.60
2023-11-24T03:12:45.277Z,4.76
2023-11-24T03:15:12.679Z,4.70
2023-11-24T03:17:40.088Z,4.75
2023-11-24T03:20:07.435Z,4.70
2023-11-24T03:22:34.638Z,4.85
2023-11-24T03:25:01.924Z,4.91
2023-11-24T03:27:29.263Z,4.94
2023-11-24T03:29:56.754Z,5.05
2023-11-24T03:32:23.934Z,5.05
2023-11-24T03:34:51.231Z,4.89
2023-11-24T03:37:18.624Z,5.01
2023-11-24T03:39:45.913Z,4.99
2023-11-24T03:42:13.280Z,4.97
2023-11-24T03:44:40.410Z,5.05
2023-11-24T03:47:07.602Z,4.90
2023-11-24T03:49:34.800Z,4.98
2023-11-24T03:52:01.959Z,5.06
2023-11-24T03:54:29.887Z,5.03
2023-11-24T03:56:58.233Z,4.96
2023-11-24T03:59:25.326Z,5.03
2023-11-24T04:01:52.703Z,5.11
2023-11-24T04:04:19.924Z,5.19
2023-11-24T04:06:47.316Z,5.25
2023-11-24T04:09:14.626Z,5.43
2023-11-24T04:11:42.053Z,5.42
2023-11-24T04:14:15.056Z,5.33
2023-11-24T04:16:43.052Z,5.52
2023-11-24T04:19:10.758Z,5.47
2023-11-24T04:21:38.577Z,5.33
2023-11-24T04:24:08.982Z,5.40
2023-11-24T04:26:36.231Z,5.20
2023-11-24T04:29:03.323Z,5.31
2023-11-24T04:31:30.597Z,5.31
2023-11-24T04:33:58.170Z,5.46
2023-11-24T04:36:25.496Z,5.52
2023-11-24T04:38:52.700Z,7.06
2023-11-24T04:41:19.959Z,8.37
2023-11-24T04:43:47.496Z,10.04
2023-11-24T04:46:14.924Z,10.19
2023-11-24T04:48:43.044Z,7.87
2023-11-24T04:51:11.153Z,7.96
2023-11-24T04:53:41.828Z,9.51
2023-11-24T04:56:09.422Z,10.12
2023-11-24T04:58:36.910Z,8.39
2023-11-24T05:01:04.605Z,8.09
2023-11-24T05:03:31.926Z,9.01
2023-11-24T05:06:02.178Z,9.56
2023-11-24T05:08:29.516Z,10.75
2023-11-24T05:10:59.783Z,9.46
2023-11-24T05:13:29.666Z,7.95
2023-11-24T05:15:56.978Z,7.36
2023-11-24T05:18:27.946Z,6.84
2023-11-24T05:20:57.939Z,6.64
2023-11-24T05:23:25.329Z,6.40
2023-11-24T05:25:52.758Z,6.32
2023-11-24T05:28:20.006Z,6.19
2023-11-24T05:30:50.080Z,6.26
2023-11-24T05:33:38.261Z,6.17
2023-11-24T05:36:24.014Z,5.97
2023-11-24T05:39:08.877Z,6.00
2023-11-24T05:41:54.304Z,5.95
2023-11-24T05:44:39.362Z,5.66
2023-11-24T05:47:24.408Z,5.74
2023-11-24T05:50:09.790Z,5.82
2023-11-24T05:52:54.951Z,5.68
2023-11-24T05:55:43.698Z,5.72
2023-11-24T05:58:31.596Z,5.77
2023-11-24T06:01:16.961Z,5.85
2023-11-24T06:04:02.760Z,5.86
2023-11-24T06:06:48.069Z,5.71
2023-11-24T06:09:33.028Z,5.85
2023-11-24T06:12:18.135Z,5.83
2023-11-24T06:15:03.251Z,5.93
2023-11-24T06:17:48.411Z,6.00
2023-11-24T06:20:33.564Z,5.45
2023-11-24T06:23:18.869Z,5.53
2023-11-24T06:26:04.332Z,5.68
2023-11-24T06:28:50.635Z,5.75
2023-11-24T06:31:35.782Z,5.61
2023-11-24T06:34:20.907Z,5.65
2023-11-24T06:37:06.408Z,5.68
2023-11-24T06:39:52.031Z,5.90
2023-11-24T06:42:37.375Z,5.73
2023-11-24T06:45:24.197Z,5.76
2023-11-24T06:48:09.683Z,5.86
2023-11-24T06:50:55.094Z,5.94
2023-11-24T06:53:40.581Z,6.24
2023-11-24T06:56:25.709Z,6.54
2023-11-24T06:59:11.161Z,6.85
2023-11-24T07:01:56.262Z,6.68
2023-11-24T07:04:41.608Z,6.78
2023-11-24T07:07:26.862Z,6.93
2023-11-24T07:10:13.662Z,6.93
2023-11-24T07:12:58.856Z,6.88
2023-11-24T07:15:44.412Z,7.20
2023-11-24T07:18:29.864Z,7.49
2023-11-24T07:21:15.511Z,8.04
2023-11-24T07:24:00.757Z,8.56
2023-11-24T07:26:45.868Z,9.00
2023-11-24T07:29:31.120Z,9.50
2023-11-24T07:32:16.297Z,9.88
2023-11-24T07:35:01.809Z,9.77
2023-11-24T07:37:47.058Z,9.61
2023-11-24T07:40:32.529Z,9.71
2023-11-24T07:43:17.552Z,9.73
2023-11-24T07:46:03.225Z,9.57
2023-11-24T07:48:50.787Z,9.48
2023-11-24T07:51:36.101Z,9.45
2023-11-24T07:54:21.170Z,9.33
2023-11-24T07:57:06.265Z,9.44
2023-11-24T07:59:52.100Z,9.31
2023-11-24T08:02:37.751Z,9.32
2023-11-24T08:05:23.808Z,9.18
2023-11-24T08:08:09.341Z,9.23
2023-11-24T08:10:54.959Z,9.40
2023-11-24T08:13:40.265Z,9.36
2023-11-24T08:16:25.476Z,9.38
2023-11-24T08:19:10.797Z,9.49
2023-11-24T08:21:56.377Z,9.45
2023-11-24T08:24:41.661Z,9.78
2023-11-24T08:27:27.592Z,9.69
2023-11-24T08:30:13.750Z,9.60
2023-11-24T08:33:05.457Z,9.65
2023-11-24T08:35:53.498Z,9.66
2023-11-24T08:38:39.466Z,9.72
2023-11-24T08:41:38.181Z,9.97
2023-11-24T08:44:29.785Z,10.08
2023-11-24T08:47:25.494Z,10.14
2023-11-24T08:50:17.228Z,10.07
2023-11-24T08:53:03.766Z,10.03
2023-11-24T08:55:55.004Z,10.12
2023-11-24T08:58:44.981Z,10.05
2023-11-24T09:01:30.956Z,10.07
2023-11-24T09:04:26.043Z,10.07
2023-11-24T09:07:15.231Z,10.06
2023-11-24T09:10:07.507Z,10.09
2023-11-24T09:12:57.226Z,10.18
2023-11-24T09:15:53.238Z,10.23
2023-11-24T09:18:38.930Z,10.25
2023-11-24T09:21:30.289Z,10.34
2023-11-24T09:24:19.897Z,10.47
2023-11-24T09:27:08.303Z,10.54
2023-11-24T09:29:57.568Z,10.65
2023-11-24T09:32:42.969Z,10.76
2023-11-24T09:35:29.075Z,10.75
2023-11-24T09:38:17.481Z,10.82
2023-11-24T09:41:14.302Z,10.97
2023-11-24T09:44:00.196Z,11.20
2023-11-24T09:46:51.759Z,11.34
2023-11-24T09:49:41.870Z,11.52
2023-11-24T09:52:34.085Z,11.60
2023-11-24T09:55:26.425Z,11.67
2023-11-24T09:58:13.292Z,11.91
2023-11-24T10:01:13.644Z,11.94
2023-11-24T10:04:00.076Z,11.97
2023-11-24T10:06:48.816Z,11.88
2023-11-24T10:09:37.394Z,11.80
2023-11-24T10:12:31.464Z,11.97
2023-11-24T10:15:18.518Z,11.93
2023-11-24T10:18:04.113Z,11.85
2023-11-24T10:20:54.132Z,11.72
2023-11-24T10:23:46.255Z,11.65
2023-11-24T10:26:35.965Z,11.59
2023-11-24T10:29:24.622Z,11.64
2023-11-24T10:32:15.327Z,11.70
2023-11-24T10:35:01.336Z,11.65
2023-11-24T10:37:51.094Z,11.57
2023-11-24T10:40:37.543Z,11.54
2023-11-24T10:43:28.402Z,11.74
2023-11-24T10:46:20.435Z,12.02
2023-11-24T10:49:18.640Z,11.84
2023-11-24T10:52:10.747Z,11.77
2023-11-24T10:55:09.538Z,11.84
2023-11-24T10:58:02.044Z,11.75
2023-11-24T11:00:53.998Z,11.65
2023-11-24T11:03:49.608Z,11.68
2023-11-24T11:07:11.230Z,11.74
2023-11-24T11:10:01.656Z,11.64
2023-11-24T11:12:50.193Z,11.63
2023-11-24T11:15:38.824Z,11.64
2023-11-24T11:18:30.489Z,11.60
2023-11-24T11:21:34.814Z,11.66
2023-11-24T11:24:24.943Z,11.64
2023-11-24T11:27:33.463Z,11.66
2023-11-24T11:30:21.233Z,11.51
2023-11-24T11:33:19.864Z,11.57
2023-11-24T11:36:07.246Z,11.59
2023-11-24T11:38:54.844Z,11.58
2023-11-24T11:41:44.491Z,11.42
2023-11-24T11:44:32.620Z,11.53
2023-11-24T11:47:21.613Z,11.43
2023-11-24T11:50:16.534Z,11.41
2023-11-24T11:53:06.127Z,11.47
2023-11-24T11:55:54.080Z,11.42
2023-11-24T11:58:43.617Z,11.41
2023-11-24T12:01:35.592Z,11.50
2023-11-24T12:04:28.654Z,11.43
2023-11-24T12:07:19.808Z,11.39
2023-11-24T12:10:11.269Z,11.35
2023-11-24T12:13:00.747Z,11.39
2023-11-24T12:15:50.262Z,11.40
2023-11-24T12:18:36.204Z,11.41
2023-11-24T12:21:22.560Z,11.38
2023-11-24T12:24:15.219Z,11.53
2023-11-24T12:27:06.721Z,11.20
2023-11-24T12:29:55.719Z,11.04
2023-11-24T12:32:47.872Z,11.03
2023-11-24T12:35:34.347Z,11.06
2023-11-24T12:38:23.312Z,12.88
2023-11-24T12:41:11.171Z,12.51
2023-11-24T12:43:57.518Z,11.84
2023-11-24T12:46:46.147Z,11.51
2023-11-24T12:49:53.291Z,11.24
2023-11-24T12:52:43.549Z,11.06
2023-11-24T12:55:36.114Z,11.15
2023-11-24T12:58:27.900Z,11.27
2023-11-24T13:01:24.061Z,11.07
2023-11-24T13:04:16.289Z,12.01
2023-11-24T13:07:07.524Z,11.38
2023-11-24T13:09:59.956Z,11.26
2023-11-24T13:12:46.619Z,11.23
2023-11-24T13:15:35.509Z,11.18
2023-11-24T13:18:23.873Z,10.92
2023-11-24T13:21:12.863Z,10.76
2023-11-24T13:23:59.012Z,10.65
2023-11-24T13:26:53.927Z,10.62
2023-11-24T13:29:45.648Z,10.71
2023-11-24T13:32:34.283Z,10.54
2023-11-24T13:35:20.954Z,10.63
2023-11-24T13:38:09.641Z,10.68
2023-11-24T13:40:58.705Z,10.62
2023-11-24T13:43:47.247Z,10.49
2023-11-24T13:46:33.248Z,10.48
2023-11-24T13:49:22.034Z,10.47
2023-11-24T13:52:10.685Z,10.61
2023-11-24T13:55:00.821Z,10.71
2023-11-24T13:57:50.220Z,10.70
2023-11-24T14:00:42.940Z,10.50
2023-11-24T14:03:31.773Z,10.42
2023-11-24T14:06:24.565Z,10.57
2023-11-24T14:09:17.921Z,10.61
2023-11-24T14:12:07.821Z,10.55
2023-11-24T14:14:59.946Z,10.42
2023-11-24T14:17:48.599Z,10.39
2023-11-24T14:20:34.025Z,10.41
2023-11-24T14:23:19.616Z,10.33
2023-11-24T14:26:05.037Z,10.25
2023-11-24T14:28:50.488Z,10.26
2023-11-24T14:31:36.066Z,10.25
2023-11-24T14:34:21.992Z,10.41
2023-11-24T14:37:10.043Z,10.30
2023-11-24T14:39:57.764Z,10.33
2023-11-24T14:42:48.939Z,10.34
2023-11-24T14:45:36.994Z,10.28
2023-11-24T14:48:22.044Z,10.31
2023-11-24T14:51:10.537Z,10.41
2023-11-24T14:53:55.666Z,10.38
2023-11-24T14:56:41.527Z,10.51
2023-11-24T14:59:32.759Z,10.68
2023-11-24T15:02:21.224Z,10.54
2023-11-24T15:05:06.863Z,10.45
2023-11-24T15:07:52.780Z,10.54
2023-11-24T15:10:41.692Z,10.49
2023-11-24T15:13:27.100Z,10.39
2023-11-24T15:16:17.096Z,10.37
2023-11-24T15:19:07.206Z,10.34
2023-11-24T15:21:56.076Z,10.33
2023-11-24T15:24:44.085Z,10.49
2023-11-24T15:27:32.020Z,10.45
2023-11-24T15:30:17.288Z,10.42
2023-11-24T15:33:05.677Z,10.45
2023-11-24T15:35:51.733Z,10.42
2023-11-24T15:38:40.469Z,10.64
2023-11-24T15:41:26.946Z,10.59
2023-11-24T15:44:13.106Z,10.55
2023-11-24T15:46:58.763Z,10.44
2023-11-24T15:49:47.423Z,10.36
2023-11-24T15:52:39.931Z,10.31
2023-11-24T15:55:29.531Z,10.39
2023-11-24T15:58:24.973Z,10.42
2023-11-24T16:01:11.278Z,10.29
2023-11-24T16:03:56.838Z,10.40
2023-11-24T16:06:49.639Z,10.12
2023-11-24T16:09:40.818Z,9.89
2023-11-24T16:12:31.465Z,9.83
2023-11-24T16:15:21.846Z,9.74
2023-11-24T16:18:16.734Z,9.73
2023-11-24T16:21:05.088Z,9.69
2023-11-24T16:23:53.200Z,9.65
2023-11-24T16:26:41.424Z,9.64
2023-11-24T16:29:34.218Z,9.62
2023-11-24T16:32:22.839Z,9.60
2023-11-24T16:35:14.829Z,9.62
2023-11-24T16:38:01.171Z,9.63
2023-11-24T16:40:47.013Z,9.64
2023-11-24T16:43:33.559Z,9.83
2023-11-24T16:46:25.436Z,9.73
2023-11-24T16:49:13.802Z,9.61
2023-11-24T16:51:59.700Z,9.63
2023-11-24T16:54:49.072Z,9.69
2023-11-24T16:57:35.602Z,9.70
2023-11-24T17:00:24.353Z,9.74
2023-11-24T17:03:13.862Z,9.53
2023-11-24T17:06:02.748Z,9.44
2023-11-24T17:08:52.119Z,9.39
2023-11-24T17:11:40.333Z,9.35
2023-11-24T17:14:33.389Z,9.40
2023-11-24T17:17:22.152Z,9.42
2023-11-24T17:20:07.894Z,9.22
2023-11-24T17:22:56.061Z,9.19
2023-11-24T17:25:44.961Z,9.24
2023-11-24T17:28:30.446Z,9.11
2023-11-24T17:31:19.102Z,9.13
2023-11-24T17:34:04.675Z,9.26
2023-11-24T17:36:49.799Z,9.29
2023-11-24T17:39:35.225Z,9.34
2023-11-24T17:42:26.856Z,9.13
2023-11-24T17:45:12.514Z,9.13
2023-11-24T17:47:57.917Z,9.10
2023-11-24T17:50:46.106Z,9.12
2023-11-24T17:53:35.428Z,9.17
2023-11-24T17:56:24.107Z,9.05
2023-11-24T17:59:09.861Z,9.02
2023-11-24T18:01:58.877Z,9.11
2023-11-24T18:04:52.119Z,9.31
2023-11-24T18:07:43.811Z,9.08
2023-11-24T18:10:29.651Z,9.09
2023-11-24T18:13:15.313Z,9.01
2023-11-24T18:16:00.951Z,9.06
2023-11-24T18:18:46.324Z,10.68
2023-11-24T18:21:35.052Z,13.84
2023-11-24T18:24:22.244Z,14.37
2023-11-24T18:27:10.090Z,12.07
2023-11-24T18:29:58.680Z,10.84
2023-11-24T18:32:46.772Z,10.00
2023-11-24T18:35:35.010Z,9.73
2023-11-24T18:38:26.114Z,9.83
2023-11-24T18:41:15.272Z,9.45
2023-11-24T18:44:00.897Z,10.13
2023-11-24T18:46:49.264Z,9.76
2023-11-24T18:49:41.719Z,9.32
2023-11-24T18:52:32.569Z,9.22
2023-11-24T18:55:26.560Z,9.11
2023-11-24T18:58:12.068Z,9.14
2023-11-24T19:01:05.767Z,9.14
2023-11-24T19:03:51.826Z,9.05
2023-11-24T19:06:38.954Z,9.05
2023-11-24T19:09:26.018Z,9.07
2023-11-24T19:12:15.038Z,9.08
2023-11-24T19:15:09.474Z,9.09
2023-11-24T19:17:56.724Z,9.12
2023-11-24T19:20:41.715Z,9.06
2023-11-24T19:23:31.114Z,8.97
2023-11-24T19:26:18.483Z,8.97
2023-11-24T19:29:11.540Z,8.95
2023-11-24T19:35:13.637Z,8.90
2023-11-24T19:38:02.769Z,8.97
2023-11-24T19:40:51.807Z,8.93
2023-11-24T19:43:40.352Z,8.87
2023-11-24T19:46:25.872Z,8.90
2023-11-24T19:49:14.045Z,8.83
2023-11-24T19:52:07.165Z,8.87
2023-11-24T19:54:56.290Z,8.95
2023-11-24T19:57:44.025Z,8.87
2023-11-24T20:00:35.960Z,8.82
2023-11-24T20:03:24.573Z,8.90
2023-11-24T20:06:13.181Z,8.85
2023-11-24T20:09:05.952Z,8.67
2023-11-24T20:11:55.084Z,8.66
2023-11-24T20:14:40.841Z,8.68
2023-11-24T20:17:29.719Z,8.72
2023-11-24T20:23:00.663Z,8.62
2023-11-24T20:25:46.358Z,8.69
2023-11-24T20:28:37.320Z,8.74
2023-11-24T20:31:23.137Z,8.70
2023-11-24T20:34:08.926Z,8.74
2023-11-24T20:36:54.631Z,8.62
2023-11-24T20:39:42.287Z,8.68
2023-11-24T20:42:31.037Z,8.67
2023-11-24T20:45:20.904Z,8.55
2023-11-24T20:48:10.039Z,8.59
2023-11-24T20:50:56.450Z,8.58
2023-11-24T20:53:42.265Z,8.60
2023-11-24T20:56:34.386Z,8.67
2023-11-24T20:59:24.295Z,8.62
2023-11-24T21:02:12.633Z,8.55
2023-11-24T21:04:58.713Z,8.58
2023-11-24T21:07:54.008Z,8.56
2023-11-24T21:10:42.186Z,8.59
2023-11-24T21:13:30.339Z,10.36
2023-11-24T21:16:15.624Z,9.74
2023-11-24T21:19:02.021Z,9.18
2023-11-24T21:21:50.118Z,8.88
2023-11-24T21:24:35.264Z,8.72
2023-11-24T21:27:20.974Z,8.67
2023-11-24T21:30:10.205Z,8.61
2023-11-24T21:32:56.175Z,8.47
2023-11-24T21:35:41.728Z,8.50
2023-11-24T21:38:27.167Z,8.45
2023-11-24T21:41:12.082Z,8.47
2023-11-24T21:44:00.519Z,8.51
2023-11-24T21:46:46.695Z,8.52
2023-11-24T21:49:36.385Z,8.47
2023-11-24T21:52:21.854Z,8.53
2023-11-24T21:55:09.000Z,8.58
2023-11-24T21:57:54.430Z,8.58
2023-11-24T22:00:40.303Z,8.44
2023-11-24T22:03:25.585Z,8.38
2023-11-24T22:06:10.844Z,8.52
2023-11-24T22:08:59.137Z,8.50
2023-11-24T22:11:45.625Z,8.46
2023-11-24T22:14:33.880Z,8.44
2023-11-24T22:17:19.273Z,8.39
2023-11-24T22:20:06.514Z,8.31
2023-11-24T22:22:53.068Z,8.39
2023-11-24T22:25:42.471Z,8.36
2023-11-24T22:28:31.100Z,8.35
2023-11-24T22:31:16.827Z,8.40
2023-11-24T22:34:02.171Z,8.45
2023-11-24T22:36:50.445Z,8.46
2023-11-24T22:39:39.480Z,8.36
2023-11-24T22:42:28.424Z,8.29
2023-11-24T22:45:14.059Z,8.28
2023-11-24T22:47:59.491Z,8.32
2023-11-24T22:50:48.953Z,8.31
2023-11-24T22:53:40.479Z,8.37
2023-11-24T22:56:27.475Z,8.21
2023-11-24T22:59:12.702Z,8.17
2023-11-24T23:01:58.571Z,8.24
2023-11-24T23:04:49.192Z,8.17
2023-11-24T23:07:35.885Z,8.13
2023-11-24T23:10:23.993Z,8.03
2023-11-24T23:13:13.728Z,7.93
2023-11-24T23:16:02.229Z,7.94
2023-11-24T23:18:51.222Z,7.79
2023-11-24T23:21:36.580Z,7.85
2023-11-24T23:24:22.365Z,7.85
2023-11-24T23:27:08.352Z,7.70
2023-11-24T23:29:54.457Z,7.85
2023-11-24T23:32:43.143Z,7.67
2023-11-24T23:35:28.780Z,7.51
2023-11-24T23:38:18.025Z,7.84
2023-11-24T23:41:03.485Z,7.66
2023-11-24T23:43:49.087Z,7.68
2023-11-24T23:46:34.296Z,7.60
2023-11-24T23:49:19.598Z,7.52
2023-11-24T23:52:05.380Z,7.44
2023-11-24T23:54:50.734Z,7.50
2023-11-24T23:57:36.146Z,7.35
